ENBN/BNN METAR and TAF weather

Enter ICAO airport designator
Station Type Date Time Source
ENBN METAR 2019/12/11 15:20 UTC NOAA

ENBN 111520Z 24017KT 210V270 9999 6000W -SHRASN FEW014CB BKN025 03/01 Q0986


Station Type Date Time Source
ENBN Decoded METAR 2019/12/11 15:20 UTC NOAA

Bronnoysund / Bronnoy, Norway (ENBN) 65-28N 012-13E 9M
Dec 11, 2019 - 10:20 AM EST / 2019.12.11 1520 UTC
Wind: from the WSW (240 degrees) at 20 MPH (17 KT) (direction variable):0
Visibility: greater than 7 mile(s):0
Sky conditions: mostly cloudy
Weather: light rain showers, snow; Cumulonimbus clouds observed
Temperature: 37 F (3 C)
Dew Point: 33 F (1 C)
Relative Humidity: 86%
Pressure (altimeter): 29.12 in. Hg (0986 hPa)
ob: ENBN 111520Z 24017KT 210V270 9999 6000W -SHRASN FEW014CB BKN025 03/01 Q0986
cycle: 15

Station Type Date Time Source
ENBN TAF 2011/03/27 18:12 UTC NOAA

TAF TAF ENBN 261700Z 2618/2718 CNL

Example: see airport list